Time;durP1;ratioP1;P1;durP2;ratioP2;P2;SDS_P1;SDS_P2;PMS_P1;PMS_P2;Temp;Humidity;BMP_temperature;BMP_pressure;BME280_temperature;BME280_humidity;BME280_pressure;Samples;Min_cycle;Max_cycle;Signal;HPM_P1;HPM_P2
2022/01/22 00:01:19;;;;;;;1.57;1.47;;;3.20;90.80;2.40;99680.00;;;;5114140;28;20205;-76
2022/01/22 00:03:45;;;;;;;0.80;0.80;;;3.20;90.90;2.30;99692.00;;;;5114260;28;20304;-76
2022/01/22 00:06:13;;;;;;;0.90;0.90;;;3.30;91.00;2.50;99686.00;;;;5114228;28;20207;-77
2022/01/22 00:08:40;;;;;;;3.33;1.40;;;3.40;90.40;2.50;99690.00;;;;5114186;28;20272;-77
2022/01/22 00:11:07;;;;;;;1.10;1.10;;;3.30;90.30;2.40;99692.00;;;;5113973;28;20262;-75
2022/01/22 00:16:20;;;;;;;1.00;1.00;;;3.30;90.50;2.70;99669.00;;;;5113970;28;20193;-74
2022/01/22 00:18:47;;;;;;;1.67;1.20;;;3.40;90.60;2.60;99684.00;;;;5114029;28;20300;-75
2022/01/22 00:21:14;;;;;;;1.20;1.20;;;3.50;90.80;2.60;99635.00;;;;5096092;28;20263;-76
2022/01/22 00:23:45;;;;;;;1.60;1.50;;;3.50;89.70;2.60;99673.00;;;;5113724;28;20299;-76
2022/01/22 00:26:12;;;;;;;3.03;1.80;;;3.50;89.70;2.50;99672.00;;;;5113826;28;20216;-75
2022/01/22 00:28:41;;;;;;;1.03;1.03;;;3.50;89.70;2.50;99668.00;;;;5113836;28;20194;-75
2022/01/22 00:31:10;;;;;;;2.63;2.27;;;3.40;90.00;2.50;99669.00;;;;5113632;28;20277;-76
2022/01/22 00:33:36;;;;;;;0.90;0.90;;;3.40;90.30;2.50;99679.00;;;;5113837;28;20198;-76
2022/01/22 00:36:04;;;;;;;0.93;0.93;;;3.40;91.30;2.60;99673.00;;;;5113724;28;20601;-75
2022/01/22 00:38:31;;;;;;;1.20;1.20;;;3.50;90.00;2.70;99685.00;;;;5114734;28;20237;-78
2022/01/22 00:41:00;;;;;;;1.33;1.33;;;3.50;89.80;2.70;99675.00;;;;5117241;28;20197;-76
2022/01/22 00:43:26;;;;;;;1.17;1.13;;;3.60;89.30;2.80;99676.00;;;;5117096;28;20277;-76
2022/01/22 00:45:54;;;;;;;1.10;1.10;;;3.70;89.10;2.80;99671.00;;;;5117118;28;20239;-76
2022/01/22 00:48:20;;;;;;;0.80;0.80;;;3.60;89.10;2.80;99682.00;;;;5117104;28;20190;-75
2022/01/22 00:50:51;;;;;;;1.03;1.03;;;3.60;88.70;2.70;99671.00;;;;5116969;28;20677;-75
2022/01/22 00:53:17;;;;;;;1.63;1.53;;;3.60;89.00;2.70;99665.00;;;;5099158;28;20211;-76
2022/01/22 00:55:46;;;;;;;2.20;2.03;;;3.50;89.40;2.70;99666.00;;;;5117047;28;20217;-76
2022/01/22 00:58:15;;;;;;;1.60;1.50;;;3.60;89.50;2.60;99666.00;;;;5116832;28;20222;-76
2022/01/22 01:00:42;;;;;;;1.10;1.10;;;3.50;89.70;2.60;99664.00;;;;5117037;28;20288;-76
2022/01/22 01:03:10;;;;;;;1.87;1.77;;;3.50;90.10;2.80;99667.00;;;;5117049;28;20227;-77
2022/01/22 01:05:36;;;;;;;1.67;1.57;;;3.60;89.80;2.70;99664.00;;;;5116845;28;20201;-77
2022/01/22 01:08:04;;;;;;;1.57;1.27;;;3.60;89.50;2.70;99653.00;;;;5116729;28;20189;-77
2022/01/22 01:10:34;;;;;;;0.90;0.90;;;3.50;90.10;2.70;99668.00;;;;5116593;28;20260;-77
2022/01/22 01:13:00;;;;;;;1.03;1.03;;;3.60;89.50;2.80;99664.00;;;;5116706;28;20639;-75
2022/01/22 01:15:39;;;;;;;1.43;1.33;;;3.60;89.20;2.80;99662.00;;;;5116712;28;20228;-76
2022/01/22 01:32:12;;;;;;;1.00;1.00;;;3.50;89.70;2.70;99673.00;;;;5116517;28;20209;-76
2022/01/22 01:34:42;;;;;;;1.00;1.00;;;3.60;89.10;2.80;99637.00;;;;5116628;28;20212;-75
2022/01/22 01:37:11;;;;;;;1.50;1.40;;;3.70;89.40;2.80;99676.00;;;;5116177;28;20225;-76
2022/01/22 01:39:39;;;;;;;3.10;1.40;;;3.60;88.90;2.60;99670.00;;;;5098318;28;20255;-76
2022/01/22 01:42:09;;;;;;;1.93;1.83;;;3.50;89.10;2.50;99674.00;;;;5116237;28;20283;-75
2022/01/22 01:44:36;;;;;;;1.00;1.00;;;3.40;89.80;2.60;99695.00;;;;5116187;28;20193;-75
2022/01/22 01:47:07;;;;;;;1.80;1.10;;;3.50;90.00;2.70;99689.00;;;;5116044;28;20199;-75
2022/01/22 01:49:35;;;;;;;2.83;1.67;;;3.50;89.50;2.70;99691.00;;;;5115705;28;20225;-76
2022/01/22 01:52:11;;;;;;;1.27;1.20;;;3.60;89.60;2.80;99693.00;;;;5115794;28;20288;-74
2022/01/22 01:54:48;;;;;;;1.50;1.40;;;3.60;89.60;2.90;99688.00;;;;5115986;28;20214;-74
2022/01/22 01:57:31;;;;;;;0.80;0.80;;;3.70;88.50;2.70;99693.00;;;;5115857;28;20672;-75
2022/01/22 01:59:59;;;;;;;2.43;1.30;;;3.60;88.90;2.80;99698.00;;;;5115957;28;20640;-75
2022/01/22 02:02:28;;;;;;;2.50;1.20;;;3.60;89.00;2.70;99708.00;;;;5115814;28;20194;-76
2022/01/22 02:04:54;;;;;;;1.33;1.23;;;3.60;89.40;2.80;99699.00;;;;5115933;28;20251;-76
2022/01/22 02:07:21;;;;;;;0.87;0.87;;;3.60;89.30;2.70;99694.00;;;;5098020;28;20247;-76
2022/01/22 02:09:50;;;;;;;0.90;0.90;;;3.60;89.30;2.80;99695.00;;;;5115602;28;20647;-76
2022/01/22 02:12:31;;;;;;;6.00;2.33;;;3.60;89.60;2.80;99683.00;;;;5115838;28;20589;-75
2022/01/22 02:23:36;;;;;;;1.40;1.30;;;3.60;89.20;2.70;99691.00;;;;5115535;28;20221;-75
2022/01/22 02:26:04;;;;;;;0.90;0.90;;;3.70;89.00;2.70;99676.00;;;;5115665;28;20644;-75
2022/01/22 02:28:34;;;;;;;1.43;1.33;;;3.60;89.60;2.80;99672.00;;;;5115588;28;20192;-75
2022/01/22 02:31:08;;;;;;;3.20;2.93;;;3.60;89.60;2.90;99680.00;;;;5097414;28;20513;-74
2022/01/22 02:33:46;;;;;;;0.80;0.80;;;3.70;89.50;2.90;99671.00;;;;5115550;28;20226;-75
2022/01/22 02:36:20;;;;;;;1.23;1.13;;;3.70;89.60;2.80;99668.00;;;;5115401;28;20212;-75
2022/01/22 02:38:54;;;;;;;1.37;1.33;;;3.70;89.00;2.80;99666.00;;;;5115404;28;20683;-75
2022/01/22 02:41:24;;;;;;;3.90;1.83;;;3.60;89.30;2.70;99668.00;;;;5115631;28;20201;-75
2022/01/22 02:43:52;;;;;;;1.40;1.30;;;3.60;90.00;2.70;99672.00;;;;5115465;28;20304;-76
2022/01/22 02:46:23;;;;;;;3.07;2.47;;;3.60;90.20;2.60;99660.00;;;;5115402;28;20211;-74
2022/01/22 02:48:54;;;;;;;2.50;2.03;;;3.50;90.50;2.60;99670.00;;;;5115132;28;20205;-75
2022/01/22 02:51:21;;;;;;;4.40;1.60;;;3.50;90.90;2.60;99664.00;;;;5115102;28;20224;-75
2022/01/22 02:53:53;;;;;;;0.93;0.93;;;3.50;90.80;2.60;99661.00;;;;5115245;28;20192;-75
2022/01/22 02:56:21;;;;;;;1.57;1.47;;;3.50;90.70;2.60;99669.00;;;;5115032;28;20233;-75
2022/01/22 02:58:48;;;;;;;0.90;0.90;;;3.40;90.60;2.60;99670.00;;;;5115095;28;20228;-75
2022/01/22 03:01:17;;;;;;;1.10;1.10;;;3.50;90.70;2.50;99666.00;;;;5114663;28;20240;-75
2022/01/22 03:03:44;;;;;;;3.40;1.83;;;3.40;90.90;2.50;99659.00;;;;5114234;28;20226;-75
2022/01/22 03:06:12;;;;;;;1.50;1.40;;;3.40;91.20;2.60;99659.00;;;;5114948;28;20220;-75
2022/01/22 03:08:42;;;;;;;1.90;1.80;;;3.40;91.30;2.60;99665.00;;;;5114825;28;20201;-74
2022/01/22 03:11:25;;;;;;;1.63;1.37;;;3.50;91.40;2.50;99659.00;;;;5114870;28;20253;-75
2022/01/22 03:19:54;;;;;;;1.07;1.07;;;3.30;91.90;2.40;99669.00;;;;5106196;28;20239;-75
2022/01/22 03:22:22;;;;;;;1.00;1.00;;;3.30;91.90;2.50;99675.00;;;;5096687;28;20205;-72
2022/01/22 03:27:34;;;;;;;1.40;1.40;;;3.40;92.10;2.60;99675.00;;;;5114755;28;20224;-74
2022/01/22 03:30:02;;;;;;;1.57;1.47;;;3.50;91.20;2.70;99677.00;;;;5096850;28;20232;-75
2022/01/22 03:32:37;;;;;;;1.33;1.30;;;3.50;91.30;2.70;99663.00;;;;5114577;28;20193;-75
2022/01/22 03:35:11;;;;;;;0.90;0.90;;;3.50;91.10;2.70;99669.00;;;;5114636;28;20224;-75
2022/01/22 03:37:39;;;;;;;1.60;1.50;;;3.50;90.70;2.60;99665.00;;;;5114421;28;20220;-75
2022/01/22 03:40:12;;;;;;;1.37;1.27;;;3.50;90.60;2.60;99661.00;;;;5114440;28;20209;-75
2022/01/22 03:42:39;;;;;;;0.90;0.90;;;3.50;90.80;2.50;99665.00;;;;5114364;28;20229;-75
2022/01/22 03:45:10;;;;;;;1.53;1.43;;;3.40;91.40;2.50;99651.00;;;;5114411;28;20289;-75
2022/01/22 03:47:40;;;;;;;1.47;1.47;;;3.40;91.00;2.50;99647.00;;;;5114454;28;20201;-75
2022/01/22 03:50:11;;;;;;;1.83;1.73;;;3.40;91.70;2.60;99647.00;;;;5114287;28;20720;-76
2022/01/22 03:52:37;;;;;;;0.90;0.90;;;3.50;91.20;2.60;99655.00;;;;5114351;28;20196;-75
2022/01/22 03:55:09;;;;;;;1.80;1.70;;;3.50;91.00;2.60;99645.00;;;;5114371;28;20222;-75
2022/01/22 03:57:36;;;;;;;1.97;1.73;;;3.50;91.30;2.60;99644.00;;;;5114218;28;20320;-75
2022/01/22 04:00:08;;;;;;;1.30;1.20;;;3.50;90.90;2.60;99637.00;;;;5096317;28;20309;-75
2022/01/22 04:05:20;;;;;;;0.90;0.90;;;3.40;91.40;2.50;99640.00;;;;5112236;28;20596;-75
2022/01/22 04:10:28;;;;;;;2.10;1.57;;;3.40;91.70;2.50;99626.00;;;;5113878;28;20220;-75
2022/01/22 04:13:00;;;;;;;1.43;1.33;;;3.40;91.30;2.70;99633.00;;;;5114151;28;20267;-75
2022/01/22 04:15:31;;;;;;;3.93;2.27;;;3.50;91.20;2.40;99622.00;;;;5117557;28;20631;-75
2022/01/22 04:26:27;;;;;;;2.67;1.67;;;3.60;91.00;2.50;99637.00;;;;5117317;28;20235;-75
2022/01/22 04:28:54;;;;;;;0.80;0.80;;;3.50;90.70;2.70;99637.00;;;;5117238;28;20614;-74
2022/01/22 04:31:21;;;;;;;1.87;1.43;;;3.50;91.10;2.60;99636.00;;;;5117491;28;20236;-75
2022/01/22 04:33:47;;;;;;;2.53;2.27;;;3.50;91.20;2.70;99636.00;;;;5117351;28;20193;-75
2022/01/22 04:36:14;;;;;;;1.63;1.53;;;3.50;91.20;2.60;99634.00;;;;5117244;28;20307;-76
2022/01/22 04:38:41;;;;;;;5.07;1.57;;;3.50;91.70;2.60;99638.00;;;;5117262;28;20364;-75
2022/01/22 04:41:08;;;;;;;2.50;1.97;;;3.50;91.20;2.60;99642.00;;;;5117436;28;20251;-75
2022/01/22 04:43:37;;;;;;;2.23;2.10;;;3.50;90.90;2.50;99641.00;;;;5117167;28;20307;-75
2022/01/22 04:46:12;;;;;;;1.07;1.07;;;3.50;90.90;2.60;99609.00;;;;5117135;28;20208;-75
2022/01/22 04:48:49;;;;;;;1.80;1.70;;;3.50;91.20;2.50;99634.00;;;;5117084;28;20207;-75
2022/01/22 04:56:53;;;;;;;1.90;1.80;;;3.50;91.10;2.70;99654.00;;;;5116960;28;20636;-75
2022/01/22 04:59:19;;;;;;;1.47;1.37;;;3.50;91.20;2.50;99651.00;;;;5099111;28;20281;-75
2022/01/22 05:01:47;;;;;;;1.83;1.73;;;3.40;90.90;2.50;99649.00;;;;5116993;28;20566;-73
2022/01/22 05:04:14;;;;;;;2.03;1.93;;;3.40;91.20;2.70;99647.00;;;;5117045;28;20202;-74
2022/01/22 05:06:40;;;;;;;1.40;1.30;;;3.50;91.00;2.60;99652.00;;;;5116740;28;20644;-75
2022/01/22 05:09:07;;;;;;;2.30;1.47;;;3.40;91.00;2.60;99662.00;;;;5116650;28;20296;-75
2022/01/22 05:11:33;;;;;;;1.30;1.30;;;3.50;91.30;2.70;99658.00;;;;5116771;28;20283;-75
2022/01/22 05:14:00;;;;;;;1.93;1.30;;;3.50;91.10;2.70;99657.00;;;;5098970;28;20296;-76
2022/01/22 05:16:27;;;;;;;1.47;1.37;;;3.50;90.60;2.60;99666.00;;;;5116830;28;20315;-75
2022/01/22 05:18:58;;;;;;;3.23;2.93;;;3.50;90.50;2.60;99661.00;;;;5116622;28;20309;-76
2022/01/22 05:21:27;;;;;;;3.80;1.57;;;3.50;90.80;2.60;99670.00;;;;5116756;28;20212;-75
2022/01/22 05:23:57;;;;;;;1.43;1.33;;;3.40;91.20;2.60;99668.00;;;;5116657;28;20207;-75
2022/01/22 05:26:45;;;;;;;1.43;1.33;;;3.50;91.20;2.50;99668.00;;;;5115484;28;20192;-74
2022/01/22 05:37:45;;;;;;;1.77;1.67;;;3.50;91.00;2.40;99683.00;;;;5095531;28;20260;-75
2022/01/22 05:40:11;;;;;;;1.07;1.07;;;3.40;91.50;2.60;99684.00;;;;5116292;28;20285;-76
2022/01/22 05:42:40;;;;;;;2.30;2.10;;;3.40;91.00;2.60;99687.00;;;;5116292;28;20232;-75
2022/01/22 05:45:08;;;;;;;1.47;1.37;;;3.50;91.20;2.60;99691.00;;;;5116195;28;20707;-75
2022/01/22 05:47:35;;;;;;;1.33;1.33;;;3.50;90.80;2.70;99690.00;;;;5116281;28;20216;-75
2022/01/22 05:50:09;;;;;;;1.90;1.80;;;3.50;91.40;2.70;99693.00;;;;5098319;28;20209;-75
2022/01/22 05:52:42;;;;;;;1.70;1.60;;;3.50;90.60;2.70;99691.00;;;;5116146;28;20201;-75
2022/01/22 05:55:38;;;;;;;1.30;1.17;;;3.50;90.40;2.70;99685.00;;;;5116237;28;20256;-75
2022/01/22 06:00:52;;;;;;;1.93;1.80;;;3.60;90.20;2.60;99678.00;;;;5115795;28;20215;-75
2022/01/22 06:03:18;;;;;;;1.13;1.13;;;3.50;90.10;2.60;99685.00;;;;5115771;28;20217;-75
2022/01/22 06:05:46;;;;;;;2.13;2.03;;;3.50;90.20;2.70;99683.00;;;;5115880;28;20212;-75
2022/01/22 06:08:17;;;;;;;1.33;1.33;;;3.50;91.20;2.70;99690.00;;;;5116022;28;20197;-76
2022/01/22 06:10:53;;;;;;;1.73;1.63;;;3.60;90.10;2.70;99696.00;;;;5097967;28;20254;-76
2022/01/22 06:13:22;;;;;;;1.80;1.70;;;3.60;89.60;2.70;99702.00;;;;5115862;28;20280;-75
2022/01/22 06:15:48;;;;;;;1.20;1.17;;;3.70;89.80;2.80;99707.00;;;;5115791;28;20254;-76
2022/01/22 06:18:15;;;;;;;0.90;0.90;;;3.70;89.70;2.60;99705.00;;;;5115562;28;20228;-75
2022/01/22 06:20:41;;;;;;;2.63;1.90;;;3.50;90.30;2.60;99707.00;;;;5115756;28;20200;-76
2022/01/22 06:23:08;;;;;;;1.57;1.47;;;3.50;91.00;2.70;99718.00;;;;5115646;28;20251;-77
2022/01/22 06:25:34;;;;;;;1.87;1.57;;;3.50;90.70;2.70;99707.00;;;;5115491;28;20197;-76
2022/01/22 06:28:01;;;;;;;1.10;1.07;;;3.50;91.60;2.80;99716.00;;;;5115477;28;20208;-76
2022/01/22 06:30:28;;;;;;;2.43;1.90;;;3.60;89.60;2.80;99711.00;;;;5115635;28;20696;-76
2022/01/22 06:32:54;;;;;;;1.67;1.67;;;3.60;89.40;2.90;99713.00;;;;5115421;28;20723;-74
2022/01/22 06:35:24;;;;;;;2.13;1.93;;;3.70;89.30;2.80;99718.00;;;;5115287;28;20223;-73
2022/01/22 06:37:51;;;;;;;1.20;1.20;;;3.60;89.20;2.60;99721.00;;;;5115296;28;20235;-75
2022/01/22 06:43:04;;;;;;;1.40;1.30;;;3.60;90.00;2.70;99715.00;;;;5115204;28;20564;-75
2022/01/22 06:45:32;;;;;;;2.27;2.07;;;3.60;89.60;2.80;99712.00;;;;5115246;28;20261;-75
2022/01/22 06:47:59;;;;;;;1.27;1.23;;;3.60;89.20;2.70;99704.00;;;;5115246;28;20208;-75
2022/01/22 06:50:26;;;;;;;1.20;1.20;;;3.60;89.00;2.80;99713.00;;;;5115572;28;20576;-75
2022/01/22 06:52:56;;;;;;;1.03;1.03;;;3.70;89.60;2.70;99725.00;;;;5115412;28;20276;-75
2022/01/22 06:55:30;;;;;;;1.50;1.40;;;3.60;89.10;2.70;99721.00;;;;5114394;28;20722;-75
2022/01/22 06:57:57;;;;;;;2.77;1.80;;;3.60;90.20;2.60;99718.00;;;;5114985;28;20259;-77
2022/01/22 07:00:24;;;;;;;2.90;1.73;;;3.50;89.30;2.70;99718.00;;;;5115039;28;20197;-77
2022/01/22 07:02:51;;;;;;;2.27;1.23;;;3.60;89.30;2.60;99722.00;;;;5114841;28;20388;-75
2022/01/22 07:05:17;;;;;;;1.97;1.87;;;3.50;89.40;2.70;99719.00;;;;5114872;28;20213;-75
2022/01/22 07:07:46;;;;;;;1.90;1.80;;;3.60;89.60;2.80;99727.00;;;;5114857;28;20205;-75
2022/01/22 07:10:13;;;;;;;1.40;1.33;;;3.60;89.00;2.80;99715.00;;;;5114867;28;20588;-75
2022/01/22 07:12:41;;;;;;;3.00;1.53;;;3.70;88.90;2.80;99718.00;;;;5114742;28;20349;-75
2022/01/22 07:15:08;;;;;;;1.47;1.37;;;3.60;88.70;2.80;99727.00;;;;5114501;28;20232;-76
2022/01/22 07:17:38;;;;;;;1.70;1.60;;;3.70;88.40;2.80;99719.00;;;;5114850;28;20205;-75
2022/01/22 07:20:14;;;;;;;0.90;0.90;;;3.70;88.60;3.00;99728.00;;;;5114654;28;20199;-75
2022/01/22 07:22:50;;;;;;;1.13;1.10;;;3.70;88.40;2.90;99702.00;;;;5114550;28;20228;-75
2022/01/22 07:25:16;;;;;;;3.43;2.17;;;3.80;88.30;2.80;99731.00;;;;5114651;28;20199;-76
2022/01/22 07:27:43;;;;;;;1.10;1.10;;;3.80;87.40;2.80;99728.00;;;;5114627;28;20195;-75
2022/01/22 07:30:12;;;;;;;1.10;1.10;;;3.70;87.50;2.80;99722.00;;;;5114550;28;20342;-75
2022/01/22 07:32:42;;;;;;;1.00;1.00;;;3.70;88.00;3.00;99721.00;;;;5114614;28;20284;-76
2022/01/22 07:35:11;;;;;;;0.80;0.80;;;3.70;88.20;3.00;99734.00;;;;5114560;28;20317;-75
2022/01/22 07:37:38;;;;;;;1.10;1.10;;;3.80;88.20;2.90;99702.00;;;;5114405;28;20252;-75
2022/01/22 07:40:07;;;;;;;1.33;1.23;;;3.80;87.30;2.90;99722.00;;;;5114503;28;20205;-75
2022/01/22 07:42:34;;;;;;;1.67;1.57;;;3.80;87.20;2.90;99725.00;;;;5114596;28;20300;-75
2022/01/22 07:45:01;;;;;;;5.60;2.37;;;3.80;87.50;2.90;99710.00;;;;5114551;28;20822;-74
2022/01/22 07:47:30;;;;;;;0.73;0.73;;;3.80;87.30;3.00;99732.00;;;;5114592;28;20390;-75
2022/01/22 07:49:59;;;;;;;2.40;1.63;;;3.80;87.50;3.00;99722.00;;;;5117483;28;20207;-75
2022/01/22 07:52:28;;;;;;;1.97;1.50;;;3.80;87.60;3.00;99721.00;;;;5118019;28;20201;-75
2022/01/22 07:54:54;;;;;;;3.20;1.83;;;3.80;87.50;3.00;99726.00;;;;5118277;28;20260;-76
2022/01/22 07:57:21;;;;;;;0.93;0.93;;;3.80;87.40;3.00;99744.00;;;;5117855;28;20246;-77
2022/01/22 07:59:47;;;;;;;1.40;1.37;;;3.80;87.20;3.10;99737.00;;;;5117847;28;20307;-78
2022/01/22 08:02:16;;;;;;;1.23;1.23;;;3.90;87.50;3.10;99738.00;;;;5100312;28;20598;-77
2022/01/22 08:04:45;;;;;;;1.47;1.47;;;3.90;87.30;3.10;99735.00;;;;5099893;28;20320;-77
2022/01/22 08:07:12;;;;;;;0.73;0.73;;;4.00;86.90;3.20;99740.00;;;;5118095;28;20286;-76
2022/01/22 08:09:39;;;;;;;1.00;1.00;;;;;3.10;99733.00;;;;5118214;28;20211;-82
2022/01/22 08:12:07;;;;;;;0.97;0.97;;;4.00;86.30;3.20;99727.00;;;;5117920;28;20194;-81
2022/01/22 08:14:36;;;;;;;2.53;1.80;;;4.00;87.70;3.10;99743.00;;;;5118264;28;20213;-79
2022/01/22 08:17:03;;;;;;;1.10;1.10;;;4.00;87.10;3.30;99740.00;;;;5118869;28;20285;-80
2022/01/22 08:19:30;;;;;;;1.13;1.13;;;4.10;87.00;3.00;99715.00;;;;5100664;28;20332;-77
2022/01/22 08:21:56;;;;;;;0.80;0.80;;;3.90;87.30;3.00;99739.00;;;;5120313;28;20261;-80
2022/01/22 08:24:26;;;;;;;0.90;0.90;;;3.90;87.30;3.10;99724.00;;;;5102636;28;20234;-79
2022/01/22 08:27:08;;;;;;;7.73;2.47;;;3.90;87.80;3.00;99733.00;;;;5100778;28;20716;-78
2022/01/22 08:29:34;;;;;;;2.60;1.77;;;3.90;87.90;3.20;99709.00;;;;5099732;28;20181;-78
2022/01/22 08:32:10;;;;;;;1.47;1.37;;;4.00;88.20;3.40;99741.00;;;;5117353;28;20256;-78
2022/01/22 08:37:22;;;;;;;1.23;1.20;;;4.10;86.60;3.30;99756.00;;;;5117337;28;20542;-76
2022/01/22 08:39:49;;;;;;;2.67;1.63;;;4.20;86.30;3.20;99770.00;;;;5117264;28;20206;-78
2022/01/22 08:42:16;;;;;;;0.87;0.87;;;4.10;86.70;3.30;99772.00;;;;5117313;28;20217;-77
2022/01/22 08:44:43;;;;;;;1.73;1.63;;;4.20;86.70;3.40;99773.00;;;;5117469;28;20288;-77
2022/01/22 08:47:10;;;;;;;1.00;1.00;;;4.20;86.70;3.30;99777.00;;;;5117300;28;20233;-78
2022/01/22 08:49:37;;;;;;;1.90;1.80;;;4.20;86.10;3.40;99777.00;;;;5117349;28;20223;-81
2022/01/22 08:52:09;;;;;;;2.03;1.53;;;4.20;86.50;3.50;99768.00;;;;5117157;28;20237;-76
2022/01/22 08:54:36;;;;;;;1.33;1.33;;;4.20;87.00;3.50;99782.00;;;;5117573;28;20382;-78
2022/01/22 08:57:04;;;;;;;1.33;1.27;;;4.20;86.50;3.20;99785.00;;;;5117418;28;20225;-80
2022/01/22 08:59:31;;;;;;;2.30;2.20;;;4.20;86.00;3.40;99790.00;;;;5116438;28;20263;-77
2022/01/22 09:01:58;;;;;;;2.50;1.87;;;4.20;86.20;3.30;99780.00;;;;5116943;28;20242;-79
2022/01/22 09:04:25;;;;;;;1.03;1.03;;;4.10;87.00;3.30;99773.00;;;;5117289;28;20209;-80
2022/01/22 09:06:54;;;;;;;1.47;1.37;;;4.10;87.40;3.20;99768.00;;;;5117096;28;20224;-77
2022/01/22 09:09:21;;;;;;;1.53;1.43;;;4.00;87.40;3.40;99776.00;;;;5117184;28;20632;-80
2022/01/22 09:11:50;;;;;;;1.33;1.27;;;4.10;87.50;3.30;99776.00;;;;5116746;28;20953;-78
2022/01/22 09:14:18;;;;;;;5.60;1.37;;;4.20;86.70;3.20;99788.00;;;;5116921;28;20213;-79
2022/01/22 09:16:46;;;;;;;1.50;1.40;;;4.10;87.70;3.30;99752.00;;;;5116949;28;20220;-75
2022/01/22 09:19:13;;;;;;;1.20;1.20;;;4.20;87.70;3.30;99788.00;;;;5116722;28;20315;-72
2022/01/22 09:21:43;;;;;;;1.20;1.20;;;4.20;87.10;3.40;99788.00;;;;5116860;28;20255;-72
2022/01/22 09:24:11;;;;;;;1.07;1.07;;;4.20;86.80;3.30;99793.00;;;;5098801;28;20210;-76
2022/01/22 09:26:39;;;;;;;1.90;1.80;;;4.20;87.50;3.40;99776.00;;;;5117418;28;20202;-77
2022/01/22 09:29:06;;;;;;;7.03;1.80;;;4.20;87.40;3.50;99797.00;;;;5119820;28;20229;-77
2022/01/22 09:31:34;;;;;;;1.10;1.10;;;4.30;87.90;3.50;99778.00;;;;5120439;28;20237;-77
2022/01/22 09:34:02;;;;;;;4.60;2.70;;;4.30;87.40;3.50;99763.00;;;;5123424;28;20215;-77
2022/01/22 09:36:31;;;;;;;2.67;2.47;;;4.30;87.20;3.50;99802.00;;;;5127644;28;20220;-77
2022/01/22 09:38:58;;;;;;;1.97;1.87;;;4.40;87.70;3.60;99799.00;;;;5129030;28;20218;-80
2022/01/22 09:41:28;;;;;;;1.30;1.20;;;4.40;87.40;3.50;99807.00;;;;5128849;28;20258;-81
2022/01/22 09:43:56;;;;;;;1.63;1.53;;;4.30;87.30;3.50;99812.00;;;;5128707;28;20226;-80
2022/01/22 09:46:25;;;;;;;2.00;1.53;;;4.30;87.80;3.60;99819.00;;;;5127435;28;20198;-79
2022/01/22 09:48:53;;;;;;;1.13;1.13;;;4.40;87.20;3.50;99819.00;;;;5126506;28;20213;-77
2022/01/22 09:51:20;;;;;;;4.00;1.87;;;4.40;87.90;3.60;99827.00;;;;5123790;28;20292;-79
2022/01/22 09:53:47;;;;;;;0.80;0.80;;;4.40;88.50;3.40;99822.00;;;;5116949;28;20809;-78
2022/01/22 09:56:19;;;;;;;1.40;1.40;;;4.40;88.30;3.60;99830.00;;;;5116754;28;20205;-78
2022/01/22 09:58:46;;;;;;;1.33;1.23;;;4.40;88.50;3.60;99817.00;;;;5116475;28;20245;-78
2022/01/22 10:01:26;;;;;;;2.30;1.40;;;4.40;88.70;3.80;99826.00;;;;5117667;28;20258;-77
2022/01/22 10:03:57;;;;;;;1.20;1.20;;;4.40;89.00;3.80;99833.00;;;;5120959;28;20536;-78
2022/01/22 10:06:26;;;;;;;1.83;1.73;;;4.50;88.20;3.60;99826.00;;;;5124470;28;20173;-78
2022/01/22 10:09:05;;;;;;;2.37;1.57;;;4.50;88.30;3.80;99838.00;;;;5124672;28;20657;-77
2022/01/22 10:11:32;;;;;;;2.73;1.37;;;4.60;88.90;3.70;99840.00;;;;5122303;28;20198;-79
2022/01/22 10:13:59;;;;;;;1.67;1.57;;;4.50;88.90;3.70;99835.00;;;;5121062;28;20312;-77
2022/01/22 10:16:28;;;;;;;1.90;1.80;;;4.50;88.90;3.80;99836.00;;;;5117135;28;20668;-76
2022/01/22 10:19:12;;;;;;;2.83;2.63;;;4.50;89.20;3.80;99836.00;;;;5124068;28;20249;-75
2022/01/22 10:21:41;;;;;;;1.60;1.50;;;4.60;89.40;3.80;99826.00;;;;5132102;28;20204;-74
2022/01/22 10:24:37;;;;;;;0.80;0.80;;;4.50;88.80;3.70;99826.00;;;;5128025;28;20312;-78
2022/01/22 10:27:26;;;;;;;3.47;2.70;;;4.60;88.70;3.70;99823.00;;;;5109499;28;20263;-79
2022/01/22 10:29:57;;;;;;;1.10;1.10;;;4.60;88.90;3.70;99828.00;;;;5127634;28;20225;-78
2022/01/22 10:32:40;;;;;;;1.00;1.00;;;4.50;88.50;3.70;99829.00;;;;5127758;28;20205;-77
2022/01/22 10:35:12;;;;;;;0.70;0.70;;;4.60;87.70;3.70;99798.00;;;;5125566;28;20248;-75
2022/01/22 10:37:39;;;;;;;1.63;1.53;;;4.60;87.50;3.80;99826.00;;;;5115215;28;20214;-75
2022/01/22 10:40:27;;;;;;;1.43;1.33;;;4.60;87.80;3.80;99809.00;;;;5115871;28;20217;-77
2022/01/22 10:43:22;;;;;;;1.23;1.13;;;4.50;87.80;3.80;99813.00;;;;5097902;28;20206;-75
2022/01/22 10:46:06;;;;;;;1.80;1.33;;;4.60;87.40;3.60;99785.00;;;;5111224;28;20276;-75
2022/01/22 10:48:33;;;;;;;1.30;1.20;;;4.60;87.10;3.70;99801.00;;;;5115272;28;20189;-74
2022/01/22 10:51:05;;;;;;;1.50;1.40;;;4.50;87.10;3.80;99791.00;;;;5115130;28;20225;-75
2022/01/22 10:53:52;;;;;;;3.73;2.00;;;4.60;87.50;3.60;99800.00;;;;5115172;28;20178;-76
2022/01/22 10:56:22;;;;;;;1.27;1.17;;;4.50;87.90;3.80;99798.00;;;;5115035;28;20743;-75
2022/01/22 10:58:57;;;;;;;1.77;1.67;;;4.60;87.60;3.70;99803.00;;;;5097189;28;20550;-74
2022/01/22 11:01:27;;;;;;;1.17;1.10;;;4.50;88.00;3.80;99791.00;;;;5114929;28;20249;-75
2022/01/22 11:04:12;;;;;;;1.50;1.40;;;4.60;87.50;3.90;99785.00;;;;5115016;28;20208;-73
2022/01/22 11:06:46;;;;;;;0.70;0.70;;;4.70;86.40;3.90;99783.00;;;;5114877;28;20225;-74
2022/01/22 11:09:15;;;;;;;1.03;1.03;;;4.70;86.80;3.80;99785.00;;;;5114730;28;20206;-73
2022/01/22 11:11:42;;;;;;;0.90;0.90;;;4.70;87.30;4.00;99787.00;;;;5114768;28;20241;-75
2022/01/22 11:14:11;;;;;;;2.33;2.23;;;4.80;87.10;4.10;99786.00;;;;5114812;28;20190;-75
2022/01/22 11:16:40;;;;;;;1.10;1.00;;;4.80;87.20;4.20;99794.00;;;;5114665;28;20309;-73
2022/01/22 11:19:10;;;;;;;2.07;1.53;;;4.90;86.80;4.10;99778.00;;;;5114793;28;20214;-74
2022/01/22 11:21:40;;;;;;;0.80;0.80;;;4.90;86.60;4.10;99806.00;;;;5114688;28;20599;-72
2022/01/22 11:24:11;;;;;;;2.10;1.73;;;4.90;86.30;4.20;99799.00;;;;5113708;28;20200;-76
2022/01/22 11:26:44;;;;;;;1.77;1.63;;;4.90;85.90;4.00;99800.00;;;;5114515;28;20347;-75
2022/01/22 11:29:14;;;;;;;11.27;1.63;;;4.90;86.20;4.10;99796.00;;;;5114721;28;20198;-76
2022/01/22 11:31:46;;;;;;;1.43;1.43;;;4.90;86.60;4.10;99792.00;;;;5114465;28;20313;-74
2022/01/22 11:34:16;;;;;;;1.00;1.00;;;4.90;86.30;4.20;99789.00;;;;5114626;28;20198;-75
2022/01/22 11:36:58;;;;;;;1.17;1.17;;;5.00;85.80;4.20;99788.00;;;;5114474;28;20237;-73
2022/01/22 11:39:28;;;;;;;1.07;1.07;;;5.00;85.00;4.30;99766.00;;;;5114394;28;20280;-73
2022/01/22 11:41:58;;;;;;;1.67;1.57;;;5.10;85.80;4.40;99798.00;;;;5114511;28;20226;-75
2022/01/22 11:44:35;;;;;;;1.27;1.27;;;5.20;85.40;4.00;99808.00;;;;5096588;28;20198;-75
2022/01/22 11:47:15;;;;;;;1.63;1.53;;;5.10;85.10;4.30;99800.00;;;;5096451;28;20658;-75
2022/01/22 11:50:06;;;;;;;1.93;1.80;;;5.10;85.80;4.50;99799.00;;;;5096679;28;20201;-75
2022/01/22 11:52:37;;;;;;;1.93;1.83;;;5.10;86.30;4.20;99789.00;;;;5096576;28;20590;-74
2022/01/22 11:55:09;;;;;;;1.70;1.60;;;5.10;86.10;4.40;99785.00;;;;5114505;28;20216;-76
2022/01/22 11:57:37;;;;;;;1.20;1.17;;;5.10;86.10;4.30;99788.00;;;;5114483;28;20229;-77
2022/01/22 12:00:21;;;;;;;1.10;1.10;;;5.10;85.60;4.50;99782.00;;;;5114357;28;20695;-77
2022/01/22 12:03:20;;;;;;;1.40;1.30;;;5.20;86.10;4.70;99781.00;;;;5114222;28;20225;-75
2022/01/22 12:06:08;;;;;;;0.90;0.90;;;5.30;85.10;4.60;99772.00;;;;5114598;28;20544;-75
2022/01/22 12:09:11;;;;;;;1.20;1.20;;;5.30;84.90;4.70;99785.00;;;;5114129;28;20308;-76
2022/01/22 12:14:55;;;;;;;1.13;1.03;;;5.50;84.40;4.40;99775.00;;;;5114474;28;20217;-76
2022/01/22 12:18:12;;;;;;;0.77;0.77;;;5.40;83.70;4.40;99774.00;;;;5114517;28;20201;-78
2022/01/22 12:24:06;;;;;;;0.97;0.97;;;5.20;84.80;4.20;99788.00;;;;5114077;28;20259;-78
2022/01/22 12:26:53;;;;;;;1.73;1.63;;;5.20;85.40;4.30;99784.00;;;;5113893;28;20210;-78
2022/01/22 12:29:40;;;;;;;1.43;1.33;;;5.10;86.30;4.20;99788.00;;;;5096093;28;20222;-79
2022/01/22 12:32:27;;;;;;;1.80;1.17;;;5.10;86.50;4.40;99773.00;;;;5114330;28;20240;-79
2022/01/22 12:35:15;;;;;;;2.20;2.07;;;5.10;86.40;4.40;99782.00;;;;5115455;28;20222;-76
2022/01/22 12:37:53;;;;;;;0.90;0.90;;;5.20;86.30;4.40;99789.00;;;;5117435;28;20535;-78
2022/01/22 12:40:34;;;;;;;2.40;2.07;;;5.20;86.40;4.30;99783.00;;;;5113159;28;20266;-77
2022/01/22 12:43:13;;;;;;;1.70;1.60;;;5.10;87.00;4.50;99781.00;;;;5117732;28;20221;-77